createdAt,value
2023-02-27T00:03:38.934Z,101358.91
2023-02-27T00:08:40.609Z,101368.94
2023-02-27T00:13:42.132Z,101360.88
2023-02-27T00:18:43.641Z,101374.50
2023-02-27T00:23:45.204Z,101364.59
2023-02-27T00:28:46.747Z,101369.25
2023-02-27T00:33:48.219Z,101371.13
2023-02-27T00:38:49.753Z,101370.13
2023-02-27T00:43:51.330Z,101389.03
2023-02-27T00:48:52.793Z,101383.75
2023-02-27T00:53:54.226Z,101386.53
2023-02-27T00:58:55.810Z,101383.97
2023-02-27T01:03:57.428Z,101381.00
2023-02-27T01:08:58.836Z,101384.25
2023-02-27T01:14:03.868Z,101378.38
2023-02-27T01:19:05.313Z,101374.34
2023-02-27T01:24:06.896Z,101375.50
2023-02-27T01:29:08.470Z,101381.34
2023-02-27T01:34:09.919Z,101372.47
2023-02-27T01:39:11.498Z,101371.16
2023-02-27T01:44:14.528Z,101379.22
2023-02-27T01:49:21.094Z,101378.00
2023-02-27T01:54:26.045Z,101379.38
2023-02-27T01:59:30.660Z,101372.44
2023-02-27T02:04:36.324Z,101364.06
2023-02-27T02:09:41.770Z,101364.00
2023-02-27T02:14:43.797Z,101369.50
2023-02-27T02:20:07.169Z,101366.72
2023-02-27T02:25:17.472Z,101373.06
2023-02-27T02:30:46.787Z,101371.81
2023-02-27T02:35:53.913Z,101377.63
2023-02-27T02:41:01.274Z,101377.34
2023-02-27T02:46:18.436Z,101374.69
2023-02-27T02:51:37.158Z,101373.56
2023-02-27T02:56:53.887Z,101377.13
2023-02-27T03:02:09.006Z,101372.72
2023-02-27T03:07:23.558Z,101382.56
2023-02-27T03:12:30.702Z,101377.97
2023-02-27T03:17:35.077Z,101380.72
2023-02-27T03:22:40.349Z,101378.00
2023-02-27T03:27:48.732Z,101378.22
2023-02-27T03:33:01.941Z,101383.56
2023-02-27T03:38:15.657Z,101388.78
2023-02-27T03:43:27.376Z,101391.75
2023-02-27T03:48:29.534Z,101396.06
2023-02-27T03:53:57.152Z,101407.75
2023-02-27T03:58:58.949Z,101406.91
2023-02-27T04:04:14.861Z,101408.41
2023-02-27T04:09:48.384Z,101401.75
2023-02-27T04:15:03.914Z,101410.28
2023-02-27T04:20:29.117Z,101408.75
2023-02-27T04:26:05.946Z,101412.66
2023-02-27T04:31:27.677Z,101415.41
2023-02-27T04:36:47.892Z,101421.16
2023-02-27T04:42:11.205Z,101425.31
2023-02-27T04:47:16.250Z,101426.34
2023-02-27T04:52:27.550Z,101431.78
2023-02-27T04:57:41.388Z,101432.72
2023-02-27T05:02:47.553Z,101437.00
2023-02-27T05:08:03.172Z,101437.47
2023-02-27T05:13:12.910Z,101444.16
2023-02-27T05:18:19.136Z,101441.47
2023-02-27T05:23:32.704Z,101448.78
2023-02-27T05:28:41.971Z,101452.56
2023-02-27T05:34:06.337Z,101461.28
2023-02-27T05:39:10.451Z,101462.53
2023-02-27T05:44:23.791Z,101468.53
2023-02-27T05:49:33.596Z,101467.75
2023-02-27T05:54:53.041Z,101468.19
2023-02-27T06:00:16.000Z,101468.00
2023-02-27T06:05:19.188Z,101471.66
2023-02-27T06:10:22.457Z,101475.13
2023-02-27T06:15:24.085Z,101474.22
2023-02-27T06:20:25.609Z,101480.28
2023-02-27T06:25:27.403Z,101480.13
2023-02-27T06:30:29.197Z,101489.88
2023-02-27T06:35:30.953Z,101490.38
2023-02-27T06:40:32.656Z,101495.63
2023-02-27T06:45:34.146Z,101493.47
2023-02-27T06:50:35.825Z,101501.84
2023-02-27T06:55:37.377Z,101505.97
2023-02-27T07:00:38.937Z,101521.19
2023-02-27T07:05:41.999Z,101519.78
2023-02-27T07:10:46.710Z,101518.34
2023-02-27T07:15:48.461Z,101530.00
2023-02-27T07:20:51.657Z,101531.56
2023-02-27T07:25:53.156Z,101523.47
2023-02-27T07:30:55.427Z,101528.66
2023-02-27T07:35:57.010Z,101525.94
2023-02-27T07:40:58.566Z,101526.22
2023-02-27T07:46:00.015Z,101540.25
2023-02-27T07:51:01.976Z,101541.13
2023-02-27T07:56:03.627Z,101531.06
2023-02-27T08:01:05.517Z,101532.97
2023-02-27T08:06:07.174Z,101539.59
2023-02-27T08:11:08.885Z,101551.47
2023-02-27T08:16:10.391Z,101544.06
2023-02-27T08:21:11.863Z,101550.66
2023-02-27T08:26:13.944Z,101537.81
2023-02-27T08:31:17.153Z,101551.19
2023-02-27T08:36:18.680Z,101542.56
2023-02-27T08:41:20.366Z,101545.63
2023-02-27T08:46:21.866Z,101548.31
2023-02-27T08:51:23.593Z,101552.94
2023-02-27T08:56:26.206Z,101545.88
2023-02-27T09:01:28.448Z,101537.94
2023-02-27T09:06:31.891Z,101539.44
2023-02-27T09:11:33.807Z,101541.50
2023-02-27T09:16:35.520Z,101545.59
2023-02-27T09:21:37.045Z,101539.97
2023-02-27T09:26:45.224Z,101541.19
2023-02-27T09:31:47.636Z,101546.72
2023-02-27T09:36:49.199Z,101554.13
2023-02-27T09:42:05.327Z,101547.19
2023-02-27T09:47:19.295Z,101556.19
2023-02-27T09:52:20.937Z,101557.53
2023-02-27T09:57:40.925Z,101572.72
2023-02-27T10:02:42.448Z,101573.09
2023-02-27T10:07:59.498Z,101564.84
2023-02-27T10:13:28.943Z,101582.38
2023-02-27T10:18:35.567Z,101618.25
2023-02-27T10:23:58.075Z,101618.41
2023-02-27T10:29:11.911Z,101595.03
2023-02-27T10:34:15.593Z,101590.06
2023-02-27T10:39:19.028Z,101584.84
2023-02-27T10:44:20.566Z,101586.50
2023-02-27T10:49:22.266Z,101594.97
2023-02-27T10:54:25.585Z,101576.34
2023-02-27T10:59:28.518Z,101580.91
2023-02-27T11:04:47.004Z,101569.72
2023-02-27T11:10:04.738Z,101582.63
2023-02-27T11:15:15.423Z,101575.81
2023-02-27T11:20:38.821Z,101549.88
2023-02-27T11:25:40.755Z,101550.84
2023-02-27T11:30:43.382Z,101538.31
2023-02-27T11:35:50.993Z,101530.31
2023-02-27T11:41:00.687Z,101527.63
2023-02-27T11:46:35.596Z,101514.97
2023-02-27T11:51:50.555Z,101501.47
2023-02-27T11:57:05.886Z,101497.88
2023-02-27T12:02:45.127Z,101504.47
2023-02-27T12:07:54.154Z,101501.84
2023-02-27T12:13:01.930Z,101498.75
2023-02-27T12:18:24.710Z,101490.13
2023-02-27T12:23:34.259Z,101491.00
2023-02-27T12:28:52.960Z,101481.91
2023-02-27T12:34:05.087Z,101464.69
2023-02-27T12:39:18.800Z,101468.47
2023-02-27T12:44:45.178Z,101454.59
2023-02-27T12:49:56.298Z,101454.28
2023-02-27T12:55:15.414Z,101451.28
2023-02-27T13:00:22.846Z,101441.81
2023-02-27T13:05:39.017Z,101440.13
2023-02-27T13:11:05.251Z,101440.56
2023-02-27T13:16:19.885Z,101436.50
2023-02-27T13:21:24.137Z,101423.41
2023-02-27T13:26:28.619Z,101420.03
2023-02-27T13:31:37.713Z,101418.44
2023-02-27T13:36:50.759Z,101416.47
2023-02-27T13:41:52.443Z,101407.75
2023-02-27T13:46:53.904Z,101427.31
2023-02-27T13:51:56.574Z,101419.88
2023-02-27T13:57:18.757Z,101419.53
2023-02-27T14:02:46.584Z,101419.88
2023-02-27T14:08:16.333Z,101430.72
2023-02-27T14:13:45.667Z,101427.31
2023-02-27T14:18:54.629Z,101438.28
2023-02-27T14:23:56.321Z,101441.13
2023-02-27T14:28:57.975Z,101441.84
2023-02-27T14:34:02.225Z,101436.38
2023-02-27T14:39:04.377Z,101434.53
2023-02-27T14:44:17.548Z,101424.59
2023-02-27T14:49:22.399Z,101441.09
2023-02-27T14:54:25.957Z,101450.25
2023-02-27T14:59:36.120Z,101433.53
2023-02-27T15:04:37.778Z,101432.69
2023-02-27T15:09:43.317Z,101431.34
2023-02-27T15:14:50.721Z,101430.69
2023-02-27T15:19:55.262Z,101429.72
2023-02-27T15:24:58.012Z,101428.44
2023-02-27T15:30:00.459Z,101443.31
2023-02-27T15:35:05.670Z,101442.94
2023-02-27T15:40:15.562Z,101448.06
2023-02-27T15:45:19.929Z,101446.47
2023-02-27T15:50:42.540Z,101446.22
2023-02-27T15:55:56.129Z,101448.31
2023-02-27T16:01:03.589Z,101446.72
2023-02-27T16:06:17.703Z,101469.84
2023-02-27T16:11:29.949Z,101468.22
2023-02-27T16:16:36.828Z,101478.75
2023-02-27T16:21:38.362Z,101481.31
2023-02-27T16:26:40.067Z,101483.94
2023-02-27T16:31:47.911Z,101487.66
2023-02-27T16:36:55.722Z,101495.13
2023-02-27T16:41:59.608Z,101515.25
2023-02-27T16:47:01.021Z,101502.41
2023-02-27T16:52:02.830Z,101514.38
2023-02-27T16:57:04.622Z,101516.72
2023-02-27T17:02:11.765Z,101522.94
2023-02-27T17:07:15.858Z,101536.50
2023-02-27T17:12:17.433Z,101532.06
2023-02-27T17:17:19.483Z,101540.16
2023-02-27T17:22:20.987Z,101542.31
2023-02-27T17:27:22.493Z,101548.13
2023-02-27T17:32:24.236Z,101549.13
2023-02-27T17:37:26.095Z,101558.09
2023-02-27T17:42:27.498Z,101556.03
2023-02-27T17:47:28.995Z,101556.44
2023-02-27T17:52:30.597Z,101564.38
2023-02-27T17:57:35.256Z,101561.44
2023-02-27T18:02:36.841Z,101565.38
2023-02-27T18:07:38.567Z,101575.19
2023-02-27T18:12:40.222Z,101573.63
2023-02-27T18:17:43.455Z,101571.34
2023-02-27T18:22:44.887Z,101576.25
2023-02-27T18:27:46.605Z,101567.41
2023-02-27T18:32:48.553Z,101567.75
2023-02-27T18:37:50.037Z,101572.78
2023-02-27T18:42:52.042Z,101577.13
2023-02-27T18:47:53.713Z,101584.84
2023-02-27T18:52:55.225Z,101571.69
2023-02-27T18:57:56.678Z,101577.28
2023-02-27T19:02:58.251Z,101584.16
2023-02-27T19:08:04.862Z,101583.84
2023-02-27T19:13:06.970Z,101581.94
2023-02-27T19:18:08.617Z,101584.59
2023-02-27T19:23:10.371Z,101578.34
2023-02-27T19:28:12.072Z,101588.38
2023-02-27T19:33:15.922Z,101588.13
2023-02-27T19:38:17.452Z,101595.13
2023-02-27T19:43:19.037Z,101586.44
2023-02-27T19:48:20.692Z,101600.53
2023-02-27T19:53:22.152Z,101596.56
2023-02-27T19:58:23.675Z,101604.66
2023-02-27T20:03:34.279Z,101610.88
2023-02-27T20:08:35.845Z,101608.16
2023-02-27T20:13:37.423Z,101608.97
2023-02-27T20:18:41.357Z,101610.69
2023-02-27T20:23:44.736Z,101609.88
2023-02-27T20:28:48.051Z,101613.81
2023-02-27T20:33:50.473Z,101605.66
2023-02-27T20:38:51.968Z,101602.84
2023-02-27T20:43:53.710Z,101608.72
2023-02-27T20:48:56.896Z,101605.97
2023-02-27T20:53:59.916Z,101607.56
2023-02-27T20:59:04.136Z,101609.09
2023-02-27T21:04:06.852Z,101597.53
2023-02-27T21:09:08.628Z,101600.13
2023-02-27T21:14:11.426Z,101592.69
2023-02-27T21:19:12.874Z,101590.16
2023-02-27T21:24:16.431Z,101599.88
2023-02-27T21:29:20.785Z,101596.13
2023-02-27T21:34:24.953Z,101603.13
2023-02-27T21:39:27.739Z,101594.78
2023-02-27T21:44:29.177Z,101585.78
2023-02-27T21:49:30.694Z,101592.44
2023-02-27T21:54:32.409Z,101595.16
2023-02-27T21:59:36.611Z,101584.63
2023-02-27T22:04:43.253Z,101597.34
2023-02-27T22:09:44.840Z,101588.94
2023-02-27T22:14:51.869Z,101597.03
2023-02-27T22:19:54.138Z,101602.84
2023-02-27T22:24:55.710Z,101591.38
2023-02-27T22:29:57.172Z,101590.31
2023-02-27T22:34:58.895Z,101595.34
2023-02-27T22:40:00.474Z,101598.81
2023-02-27T22:45:01.960Z,101593.69
2023-02-27T22:50:04.502Z,101598.81
2023-02-27T22:55:06.591Z,101587.78
2023-02-27T23:00:08.951Z,101591.16
2023-02-27T23:05:10.792Z,101594.53
2023-02-27T23:10:12.279Z,101594.72
2023-02-27T23:15:13.792Z,101595.59
2023-02-27T23:20:15.372Z,101596.09
2023-02-27T23:25:16.922Z,101594.69
2023-02-27T23:30:18.673Z,101599.00
2023-02-27T23:35:20.259Z,101605.97
2023-02-27T23:40:23.851Z,101604.13
2023-02-27T23:45:25.510Z,101602.09
2023-02-27T23:50:29.807Z,101611.94
2023-02-27T23:55:34.838Z,101604.03
